Time;durP1;ratioP1;P1;durP2;ratioP2;P2;SDS_P1;SDS_P2;PMS_P1;PMS_P2;Temp;Humidity;BMP_temperature;BMP_pressure;BME280_temperature;BME280_humidity;BME280_pressure;Samples;Min_cycle;Max_cycle;Signal;HPM_P1;HPM_P2
2024/01/10 00:01:17;;;;;;;3.27;2.87;;;-2.20;99.90;;;;;;4991254;28;20496;-80
2024/01/10 00:03:43;;;;;;;3.13;2.67;;;-2.30;99.90;;;;;;5002448;28;20444;-79
2024/01/10 00:06:10;;;;;;;2.80;2.53;;;-2.30;99.90;;;;;;5003956;28;20029;-79
2024/01/10 00:08:36;;;;;;;3.40;2.93;;;-2.30;99.90;;;;;;4999516;28;20038;-80
2024/01/10 00:11:01;;;;;;;3.17;2.97;;;-2.30;99.90;;;;;;4999446;28;20070;-80
2024/01/10 00:13:27;;;;;;;3.93;1.47;;;-2.30;99.90;;;;;;5000748;28;20145;-80
2024/01/10 00:15:55;;;;;;;3.73;3.47;;;-2.30;99.90;;;;;;5002044;28;20045;-80
2024/01/10 00:18:21;;;;;;;2.30;2.17;;;-2.30;99.90;;;;;;5000491;28;20050;-80
2024/01/10 00:20:47;;;;;;;3.30;3.00;;;-2.30;99.90;;;;;;5004340;28;20061;-80
2024/01/10 00:23:12;;;;;;;5.33;3.60;;;-2.40;99.90;;;;;;5000898;28;20111;-79
2024/01/10 00:25:39;;;;;;;3.43;1.53;;;-2.40;99.90;;;;;;5001957;28;20612;-81
2024/01/10 00:28:05;;;;;;;4.40;4.03;;;-2.40;99.90;;;;;;4999120;28;20590;-79
2024/01/10 00:30:30;;;;;;;6.87;4.03;;;-2.40;99.90;;;;;;4995155;28;20412;-80
2024/01/10 00:32:56;;;;;;;5.30;3.20;;;-2.40;99.90;;;;;;4980608;28;20045;-79
2024/01/10 00:35:21;;;;;;;2.00;1.63;;;-2.40;99.90;;;;;;4973331;28;20046;-79
2024/01/10 00:37:47;;;;;;;2.50;2.30;;;-2.40;99.90;;;;;;4985262;28;20834;-80
2024/01/10 00:40:12;;;;;;;2.57;2.37;;;-2.40;99.90;;;;;;4997090;28;20046;-80
2024/01/10 00:42:38;;;;;;;3.67;3.20;;;-2.40;99.90;;;;;;4994406;28;20481;-78
2024/01/10 00:45:04;;;;;;;4.97;3.70;;;-2.40;99.90;;;;;;4996219;28;20046;-78
2024/01/10 00:47:30;;;;;;;3.63;2.43;;;-2.40;99.90;;;;;;5002690;28;20164;-77
2024/01/10 00:49:56;;;;;;;5.40;2.60;;;-2.40;99.90;;;;;;5000979;28;20714;-78
2024/01/10 00:52:22;;;;;;;2.93;2.77;;;-2.40;99.90;;;;;;4991818;28;20088;-80
2024/01/10 00:54:47;;;;;;;3.27;3.03;;;-2.40;99.90;;;;;;4966518;28;20050;-78
2024/01/10 00:57:14;;;;;;;7.47;2.83;;;-2.40;99.90;;;;;;4992634;28;20033;-80
2024/01/10 00:59:40;;;;;;;4.87;3.13;;;-2.40;99.90;;;;;;4971399;28;20039;-78
2024/01/10 01:02:05;;;;;;;2.70;2.57;;;-2.40;99.90;;;;;;5017291;28;20091;-80
2024/01/10 01:04:31;;;;;;;4.53;2.30;;;-2.40;99.90;;;;;;5003186;28;20049;-79
2024/01/10 01:06:57;;;;;;;2.50;2.40;;;-2.40;99.90;;;;;;4984500;28;20511;-80
2024/01/10 01:09:22;;;;;;;3.07;2.87;;;-2.40;99.90;;;;;;4987182;28;20045;-81
2024/01/10 01:11:48;;;;;;;4.03;3.40;;;-2.40;99.90;;;;;;5001035;28;20136;-79
2024/01/10 01:14:13;;;;;;;4.17;3.67;;;-2.40;99.90;;;;;;4995640;28;20049;-80
2024/01/10 01:16:39;;;;;;;3.77;3.50;;;-2.40;99.90;;;;;;5002315;28;20080;-79
2024/01/10 01:19:05;;;;;;;4.93;2.33;;;-2.40;99.90;;;;;;5000015;28;20042;-80
2024/01/10 01:21:30;;;;;;;5.57;4.87;;;-2.40;99.90;;;;;;4981808;28;20688;-79
2024/01/10 01:23:56;;;;;;;5.50;5.10;;;-2.40;99.90;;;;;;4982599;28;20185;-80
2024/01/10 01:26:21;;;;;;;3.47;3.17;;;-2.40;99.90;;;;;;4981589;28;20413;-80
2024/01/10 01:28:47;;;;;;;9.03;5.77;;;-2.40;99.90;;;;;;4983012;28;20445;-78
2024/01/10 01:31:12;;;;;;;2.30;2.17;;;-2.40;99.90;;;;;;4998579;28;20197;-80
2024/01/10 01:33:39;;;;;;;13.57;4.97;;;-2.40;99.90;;;;;;4996706;28;20716;-79
2024/01/10 01:36:05;;;;;;;5.40;4.67;;;-2.40;99.90;;;;;;5000375;28;20049;-80
2024/01/10 01:38:31;;;;;;;3.33;2.73;;;-2.40;99.90;;;;;;4988796;28;20043;-80
2024/01/10 01:40:56;;;;;;;3.10;2.90;;;-2.40;99.90;;;;;;4966755;28;20057;-80
2024/01/10 01:43:26;;;;;;;2.43;2.33;;;-2.40;99.90;;;;;;4984610;28;20497;-80
2024/01/10 01:45:56;;;;;;;4.70;4.30;;;-2.50;99.90;;;;;;4996058;28;20053;-77
2024/01/10 01:48:22;;;;;;;5.20;4.80;;;-2.50;99.90;;;;;;5000038;28;20045;-78
2024/01/10 01:50:52;;;;;;;3.67;3.47;;;-2.40;99.90;;;;;;5001087;28;20041;-80
2024/01/10 01:53:18;;;;;;;3.27;3.07;;;-2.40;99.90;;;;;;4998929;28;20396;-79
2024/01/10 01:55:45;;;;;;;5.53;3.57;;;-2.50;99.90;;;;;;4994534;28;20049;-80
2024/01/10 01:58:12;;;;;;;5.67;2.40;;;-2.40;99.90;;;;;;4984044;28;20104;-80
2024/01/10 02:00:38;;;;;;;2.63;2.43;;;-2.50;99.90;;;;;;4988946;28;20497;-79
2024/01/10 02:03:13;;;;;;;3.23;2.93;;;-2.50;99.90;;;;;;5015817;28;20046;-81
2024/01/10 02:05:39;;;;;;;5.00;4.47;;;-2.50;99.90;;;;;;4987120;28;20057;-77
2024/01/10 02:08:05;;;;;;;7.03;6.33;;;-2.50;99.90;;;;;;4983078;28;20038;-80
2024/01/10 02:10:30;;;;;;;3.70;3.23;;;-2.50;99.90;;;;;;4996884;28;20479;-79
2024/01/10 02:12:56;;;;;;;3.20;2.97;;;-2.50;99.90;;;;;;4967781;28;20084;-80
2024/01/10 02:15:21;;;;;;;4.03;3.73;;;-2.50;99.90;;;;;;4967353;28;20049;-80
2024/01/10 02:17:47;;;;;;;4.27;3.90;;;-2.50;99.90;;;;;;4986001;28;20093;-80
2024/01/10 02:20:20;;;;;;;4.77;4.47;;;-2.50;99.90;;;;;;4980584;28;20278;-78
2024/01/10 02:22:46;;;;;;;6.13;5.57;;;-2.50;99.90;;;;;;4981181;28;20388;-79
2024/01/10 02:25:12;;;;;;;5.43;5.03;;;-2.50;99.90;;;;;;4980522;28;20367;-79
2024/01/10 02:27:40;;;;;;;4.47;4.17;;;-2.50;99.90;;;;;;4982001;28;20481;-81
2024/01/10 02:30:07;;;;;;;6.73;6.20;;;-2.50;99.90;;;;;;4980118;28;20050;-80
2024/01/10 02:32:33;;;;;;;5.70;5.30;;;-2.50;99.90;;;;;;4981595;28;20481;-81
2024/01/10 02:34:58;;;;;;;7.20;4.93;;;-2.50;99.90;;;;;;4981406;28;20065;-78
2024/01/10 02:37:24;;;;;;;5.73;5.23;;;-2.50;99.90;;;;;;4963176;28;20121;-81
2024/01/10 02:39:50;;;;;;;3.37;3.17;;;-2.50;99.90;;;;;;4980581;28;20219;-79
2024/01/10 02:42:16;;;;;;;8.50;6.07;;;-2.50;99.90;;;;;;4998825;28;20054;-81
2024/01/10 02:44:42;;;;;;;8.77;5.97;;;-2.50;99.90;;;;;;5001443;28;20107;-80
2024/01/10 02:47:08;;;;;;;12.67;6.07;;;-2.50;99.90;;;;;;4997537;28;20447;-80
2024/01/10 02:49:33;;;;;;;5.93;5.43;;;-2.50;99.90;;;;;;5001808;28;20069;-80
2024/01/10 02:52:00;;;;;;;4.50;4.10;;;-2.50;99.90;;;;;;4987695;28;20078;-80
2024/01/10 02:54:26;;;;;;;6.00;5.47;;;-2.50;99.90;;;;;;4965037;28;20265;-80
2024/01/10 02:56:51;;;;;;;3.10;2.87;;;-2.50;99.90;;;;;;4981115;28;20034;-80
2024/01/10 02:59:17;;;;;;;4.53;4.20;;;-2.50;99.90;;;;;;4999151;28;20507;-80
2024/01/10 03:01:43;;;;;;;3.30;2.77;;;-2.50;99.90;;;;;;4985470;28;20046;-79
2024/01/10 03:04:09;;;;;;;5.07;4.13;;;-2.50;99.90;;;;;;4984306;28;20489;-81
2024/01/10 03:06:35;;;;;;;5.30;5.00;;;-2.60;99.90;;;;;;4984516;28;20053;-79
2024/01/10 03:09:00;;;;;;;4.63;4.23;;;-2.60;99.90;;;;;;4984579;28;20141;-80
2024/01/10 03:11:26;;;;;;;7.60;7.07;;;-2.50;99.90;;;;;;4993498;28;20084;-79
2024/01/10 03:14:10;;;;;;;7.93;7.33;;;-2.50;99.90;;;;;;4996262;28;20081;-80
2024/01/10 03:16:36;;;;;;;5.93;5.43;;;-2.50;99.90;;;;;;4984067;28;20057;-79
2024/01/10 03:19:02;;;;;;;5.80;5.23;;;-2.50;99.90;;;;;;4985033;28;20335;-79
2024/01/10 03:21:28;;;;;;;3.20;3.03;;;-2.60;99.90;;;;;;4983574;28;20526;-80
2024/01/10 03:23:58;;;;;;;7.03;4.77;;;-2.60;99.90;;;;;;4983701;28;20042;-80
2024/01/10 03:26:25;;;;;;;7.27;3.93;;;-2.60;99.90;;;;;;4968247;28;20042;-80
2024/01/10 03:28:51;;;;;;;7.97;5.13;;;-2.50;99.90;;;;;;4983796;28;20038;-79
2024/01/10 03:31:16;;;;;;;3.20;2.90;;;-2.60;99.90;;;;;;4984468;28;20405;-80
2024/01/10 03:33:42;;;;;;;3.60;3.33;;;-2.60;99.90;;;;;;4983553;28;20046;-80
2024/01/10 03:36:11;;;;;;;5.60;5.10;;;-2.60;99.90;;;;;;4984522;28;20388;-80
2024/01/10 03:38:37;;;;;;;5.03;4.60;;;-2.60;99.90;;;;;;5001111;28;20592;-80
2024/01/10 03:41:03;;;;;;;4.33;3.93;;;-2.60;99.90;;;;;;4991316;28;20050;-80
2024/01/10 03:43:28;;;;;;;5.27;4.80;;;-2.60;99.90;;;;;;4997550;28;20045;-80
2024/01/10 03:45:54;;;;;;;6.43;5.80;;;-2.60;99.90;;;;;;5002574;28;20463;-81
2024/01/10 03:48:20;;;;;;;7.13;6.50;;;-2.60;99.90;;;;;;5002869;28;20085;-80
2024/01/10 03:50:46;;;;;;;4.57;4.23;;;-2.50;99.90;;;;;;5005113;28;20073;-80
2024/01/10 03:53:11;;;;;;;6.73;5.77;;;-2.60;99.90;;;;;;5003077;28;20033;-80
2024/01/10 03:55:37;;;;;;;4.57;4.20;;;-2.60;99.90;;;;;;5000795;28;20042;-80
2024/01/10 03:58:03;;;;;;;7.37;4.97;;;-2.60;99.90;;;;;;5004038;28;20030;-79
2024/01/10 04:00:28;;;;;;;4.30;4.00;;;-2.60;99.90;;;;;;5003008;28;20042;-80
2024/01/10 04:02:54;;;;;;;4.73;4.40;;;-2.60;99.90;;;;;;5004302;28;20396;-81
2024/01/10 04:05:20;;;;;;;6.80;5.40;;;-2.60;99.90;;;;;;4999916;28;20432;-78
2024/01/10 04:07:46;;;;;;;5.93;5.43;;;-2.60;99.90;;;;;;4984049;28;20493;-81
2024/01/10 04:10:14;;;;;;;4.13;3.83;;;-2.60;99.90;;;;;;4983033;28;20049;-78
2024/01/10 04:12:45;;;;;;;5.93;5.47;;;-2.60;99.90;;;;;;4997340;28;20061;-79
2024/01/10 04:15:12;;;;;;;6.13;5.65;;;-2.60;99.90;;;;;;5003020;28;20042;-80
2024/01/10 04:17:37;;;;;;;4.37;4.07;;;-2.60;99.90;;;;;;5001034;28;20081;-78
2024/01/10 04:20:04;;;;;;;2.70;2.53;;;-2.70;99.90;;;;;;4989765;28;20674;-80
2024/01/10 04:22:29;;;;;;;6.77;6.23;;;-2.60;99.90;;;;;;4989507;28;20492;-77
2024/01/10 04:25:00;;;;;;;7.23;4.33;;;-2.70;99.90;;;;;;5002006;28;20137;-80
2024/01/10 04:27:26;;;;;;;8.57;3.30;;;-2.60;99.90;;;;;;5002187;28;20129;-78
2024/01/10 04:29:52;;;;;;;4.80;4.33;;;-2.60;99.90;;;;;;5003356;28;20042;-80
2024/01/10 04:32:18;;;;;;;4.83;4.43;;;-2.70;99.90;;;;;;4994127;28;20112;-80
2024/01/10 04:34:43;;;;;;;3.37;3.17;;;-2.70;99.90;;;;;;4982808;28;20057;-80
2024/01/10 04:37:09;;;;;;;6.00;3.93;;;-2.70;99.90;;;;;;4982734;28;20065;-81
2024/01/10 04:39:35;;;;;;;5.57;5.23;;;-2.60;99.90;;;;;;4966263;28;20326;-78
2024/01/10 04:42:01;;;;;;;5.10;4.80;;;-2.70;99.90;;;;;;4984109;28;20031;-81
2024/01/10 04:44:27;;;;;;;6.80;2.70;;;-2.60;99.90;;;;;;4982667;28;20050;-79
2024/01/10 04:46:52;;;;;;;5.07;4.57;;;-2.70;99.90;;;;;;4983183;28;20041;-81
2024/01/10 04:49:18;;;;;;;4.70;4.50;;;-2.70;99.90;;;;;;4984418;28;20044;-77
2024/01/10 04:51:44;;;;;;;3.20;3.00;;;-2.70;99.90;;;;;;4986136;28;20104;-81
2024/01/10 04:54:11;;;;;;;5.20;3.63;;;-2.70;99.90;;;;;;5002828;28;20042;-80
2024/01/10 04:56:36;;;;;;;3.47;3.17;;;-2.70;99.90;;;;;;5002725;28;20123;-81
2024/01/10 04:59:03;;;;;;;4.43;4.03;;;-2.70;99.90;;;;;;5002840;28;20057;-80
2024/01/10 05:01:28;;;;;;;4.80;4.33;;;-2.70;99.90;;;;;;4995043;28;20049;-80
2024/01/10 05:03:54;;;;;;;4.97;4.67;;;-2.70;99.90;;;;;;5000514;28;20042;-81
2024/01/10 05:06:20;;;;;;;3.87;3.57;;;-2.70;99.90;;;;;;4989336;28;20042;-78
2024/01/10 05:08:45;;;;;;;3.87;3.60;;;-2.70;99.90;;;;;;5002519;28;20053;-81
2024/01/10 05:11:11;;;;;;;3.50;3.27;;;-2.70;99.90;;;;;;4989250;28;20082;-79
2024/01/10 05:13:37;;;;;;;3.47;3.27;;;-2.70;99.90;;;;;;4982362;28;20405;-80
2024/01/10 05:16:03;;;;;;;4.47;3.93;;;-2.70;99.90;;;;;;4981329;28;20273;-80
2024/01/10 05:18:29;;;;;;;5.07;3.47;;;-2.70;99.90;;;;;;4982000;28;20045;-80
2024/01/10 05:20:54;;;;;;;4.40;4.00;;;-2.60;99.90;;;;;;4981732;28;20434;-80
2024/01/10 05:23:20;;;;;;;4.70;4.27;;;-2.70;99.90;;;;;;4994384;28;20042;-80
2024/01/10 05:25:46;;;;;;;7.00;5.00;;;-2.60;99.90;;;;;;4993137;28;20046;-81
2024/01/10 05:28:11;;;;;;;5.00;2.87;;;-2.70;99.90;;;;;;4998175;28;20042;-78
2024/01/10 05:30:37;;;;;;;3.63;3.33;;;-2.70;99.90;;;;;;4970239;28;20042;-77
2024/01/10 05:33:03;;;;;;;4.10;3.80;;;-2.70;99.90;;;;;;4992075;28;20396;-77
2024/01/10 05:35:28;;;;;;;2.60;2.50;;;-2.70;99.90;;;;;;4996090;28;20065;-81
2024/01/10 05:37:54;;;;;;;2.07;1.97;;;-2.70;99.90;;;;;;4991226;28;20057;-79
2024/01/10 05:40:20;;;;;;;4.60;4.30;;;-2.70;99.90;;;;;;5000034;28;20117;-79
2024/01/10 05:42:45;;;;;;;6.77;4.00;;;-2.70;99.90;;;;;;4993910;28;20038;-80
2024/01/10 05:45:11;;;;;;;2.60;2.40;;;-2.70;99.90;;;;;;4998772;28;20037;-79
2024/01/10 05:47:37;;;;;;;6.73;4.80;;;-2.70;99.90;;;;;;4987501;28;20464;-81
2024/01/10 05:50:06;;;;;;;2.70;2.40;;;-2.70;99.90;;;;;;5003188;28;20046;-79
2024/01/10 05:52:33;;;;;;;3.27;3.10;;;-2.70;99.90;;;;;;4990594;28;20092;-81
2024/01/10 05:54:59;;;;;;;4.07;3.77;;;-2.70;99.90;;;;;;4996759;28;20078;-79
2024/01/10 05:57:24;;;;;;;5.33;4.70;;;-2.70;99.90;;;;;;4990173;28;20062;-81
2024/01/10 05:59:52;;;;;;;5.13;4.63;;;-2.70;99.90;;;;;;4991476;28;20442;-81
2024/01/10 06:02:18;;;;;;;8.07;5.10;;;-2.70;99.90;;;;;;5000940;28;20052;-81
2024/01/10 06:04:43;;;;;;;3.90;3.63;;;-2.70;99.90;;;;;;4990179;28;20536;-79
2024/01/10 06:07:09;;;;;;;4.30;4.00;;;-2.70;99.90;;;;;;4988597;28;20785;-82
2024/01/10 06:09:34;;;;;;;5.23;4.73;;;-2.70;99.90;;;;;;4992485;28;20056;-82
2024/01/10 06:12:00;;;;;;;5.33;4.83;;;-2.70;99.90;;;;;;4992226;28;20125;-80
2024/01/10 06:14:26;;;;;;;4.50;4.20;;;-2.70;99.90;;;;;;4980421;28;20115;-77
2024/01/10 06:16:51;;;;;;;3.83;3.40;;;-2.70;99.90;;;;;;4985112;28;20435;-80
2024/01/10 06:19:18;;;;;;;4.13;3.73;;;-2.70;99.90;;;;;;5000059;28;20765;-76
2024/01/10 06:21:44;;;;;;;3.60;3.33;;;-2.70;99.90;;;;;;5000711;28;20056;-78
2024/01/10 06:24:09;;;;;;;4.03;3.57;;;-2.70;99.90;;;;;;4993841;28;20120;-79
2024/01/10 06:26:35;;;;;;;4.83;4.53;;;-2.70;99.90;;;;;;4992476;28;20049;-78
2024/01/10 06:29:00;;;;;;;5.30;4.80;;;-2.80;99.90;;;;;;4991504;28;20042;-82
2024/01/10 06:31:26;;;;;;;3.10;3.00;;;-2.80;99.90;;;;;;4983268;28;20081;-78
2024/01/10 06:33:51;;;;;;;7.30;6.77;;;-2.80;99.90;;;;;;4989026;28;20042;-82
2024/01/10 06:36:17;;;;;;;6.30;5.70;;;-2.70;99.90;;;;;;4991917;28;20054;-81
2024/01/10 06:38:43;;;;;;;16.70;4.10;;;-2.80;99.90;;;;;;4994755;28;20045;-81
2024/01/10 06:41:09;;;;;;;6.53;5.93;;;-2.80;99.90;;;;;;4991780;28;20565;-78
2024/01/10 06:43:36;;;;;;;10.40;5.67;;;-2.80;99.90;;;;;;4991689;28;20488;-79
2024/01/10 06:46:03;;;;;;;3.13;2.93;;;-2.80;99.90;;;;;;4984283;28;20108;-81
2024/01/10 06:48:29;;;;;;;5.93;5.50;;;-2.80;99.90;;;;;;4993875;28;20755;-79
2024/01/10 06:50:55;;;;;;;9.97;5.73;;;-2.80;99.90;;;;;;4990912;28;20049;-79
2024/01/10 06:53:21;;;;;;;5.40;4.90;;;-2.80;99.90;;;;;;4990703;28;20047;-79
2024/01/10 06:55:47;;;;;;;5.07;4.67;;;-2.80;99.90;;;;;;4983852;28;20469;-84
2024/01/10 06:58:12;;;;;;;4.57;4.27;;;-2.80;99.90;;;;;;4998413;28;20046;-79
2024/01/10 07:00:38;;;;;;;5.87;4.70;;;-2.80;99.90;;;;;;4987550;28;20049;-79
2024/01/10 07:03:04;;;;;;;7.50;5.00;;;-2.80;99.90;;;;;;4991942;28;20080;-80
2024/01/10 07:05:31;;;;;;;6.43;5.33;;;-2.80;99.90;;;;;;4987304;28;20112;-78
2024/01/10 07:07:57;;;;;;;8.33;5.63;;;-2.80;99.90;;;;;;4992765;28;20374;-81
2024/01/10 07:10:27;;;;;;;6.33;5.83;;;-2.80;99.90;;;;;;4990867;28;20041;-77
2024/01/10 07:12:54;;;;;;;8.47;6.43;;;-2.80;99.90;;;;;;4989512;28;20138;-81
2024/01/10 07:15:20;;;;;;;5.80;4.27;;;-2.80;99.90;;;;;;4992068;28;20077;-79
2024/01/10 07:17:45;;;;;;;3.67;3.47;;;-2.80;99.90;;;;;;4995278;28;20486;-84
2024/01/10 07:20:12;;;;;;;6.00;5.43;;;-2.80;99.90;;;;;;4988904;28;20389;-80
2024/01/10 07:22:43;;;;;;;6.13;5.63;;;-2.80;99.90;;;;;;4999047;28;20042;-84
2024/01/10 07:25:14;;;;;;;7.55;6.13;;;-2.80;99.90;;;;;;4981103;28;20057;-80
2024/01/10 07:27:42;;;;;;;10.37;6.77;;;-2.80;99.90;;;;;;4984583;28;20249;-81
2024/01/10 07:30:14;;;;;;;7.90;3.90;;;-2.80;99.90;;;;;;4991943;28;20034;-80
2024/01/10 07:32:44;;;;;;;5.43;5.03;;;-2.80;99.90;;;;;;4991232;28;20045;-80
2024/01/10 07:35:10;;;;;;;4.57;4.27;;;-2.80;99.90;;;;;;5000354;28;20659;-80
2024/01/10 07:37:40;;;;;;;5.23;4.80;;;-2.80;99.90;;;;;;4982985;28;20034;-79
2024/01/10 07:40:07;;;;;;;4.43;4.03;;;-2.80;99.90;;;;;;4984992;28;20112;-80
2024/01/10 07:42:33;;;;;;;6.77;3.43;;;-2.80;99.90;;;;;;4979918;28;20043;-78
2024/01/10 07:45:00;;;;;;;4.13;3.93;;;-2.80;99.90;;;;;;4981151;28;20339;-79
2024/01/10 07:47:25;;;;;;;7.30;6.67;;;-2.80;99.90;;;;;;5002053;28;20060;-80
2024/01/10 07:49:51;;;;;;;4.60;4.30;;;-2.80;99.90;;;;;;5002749;28;20128;-80
2024/01/10 07:52:16;;;;;;;7.53;4.63;;;-2.80;99.90;;;;;;5002733;28;20041;-80
2024/01/10 07:54:42;;;;;;;4.40;4.10;;;-2.80;99.90;;;;;;4983447;28;20125;-78
2024/01/10 07:57:08;;;;;;;5.97;4.83;;;-2.80;99.90;;;;;;4985367;28;20215;-77
2024/01/10 07:59:34;;;;;;;6.23;4.80;;;-2.80;99.90;;;;;;4989117;28;20080;-79
2024/01/10 08:02:00;;;;;;;8.77;6.33;;;-2.80;99.90;;;;;;4986825;28;20054;-78
2024/01/10 08:04:29;;;;;;;6.43;5.93;;;-2.80;99.90;;;;;;4992986;28;20092;-80
2024/01/10 08:06:55;;;;;;;4.23;3.97;;;-2.80;99.90;;;;;;5000688;28;20090;-78
2024/01/10 08:09:23;;;;;;;4.57;4.17;;;-2.80;99.90;;;;;;5002780;28;20042;-80
2024/01/10 08:11:49;;;;;;;4.47;4.17;;;-2.80;99.90;;;;;;5003233;28;20249;-79
2024/01/10 08:14:15;;;;;;;3.40;3.20;;;-2.70;99.90;;;;;;4986634;28;20547;-78
2024/01/10 08:16:41;;;;;;;4.23;3.93;;;-2.70;99.90;;;;;;5001877;28;20543;-79
2024/01/10 08:19:07;;;;;;;4.43;4.03;;;-2.70;99.90;;;;;;4985806;28;20114;-79
2024/01/10 08:21:33;;;;;;;5.37;4.97;;;-2.70;99.90;;;;;;5002292;28;20528;-79
2024/01/10 08:23:58;;;;;;;4.57;4.13;;;-2.70;99.90;;;;;;4985585;28;20037;-79
2024/01/10 08:26:24;;;;;;;5.27;3.20;;;-2.70;99.90;;;;;;5002143;28;20555;-79
2024/01/10 08:28:49;;;;;;;4.87;4.57;;;-2.70;99.90;;;;;;5002780;28;20117;-79
2024/01/10 08:31:18;;;;;;;4.27;3.87;;;-2.70;99.90;;;;;;5002247;28;20399;-79
2024/01/10 08:33:45;;;;;;;6.43;5.83;;;-2.70;99.90;;;;;;5002070;28;20124;-79
2024/01/10 08:36:10;;;;;;;7.70;6.43;;;-2.60;99.90;;;;;;5000285;28;20466;-78
2024/01/10 08:38:37;;;;;;;5.90;4.80;;;-2.60;99.90;;;;;;5001992;28;20033;-80
2024/01/10 08:41:03;;;;;;;2.80;2.60;;;-2.60;99.90;;;;;;5003056;28;20041;-79
2024/01/10 08:43:29;;;;;;;4.43;3.73;;;-2.60;99.90;;;;;;5001151;28;20046;-79
2024/01/10 08:45:54;;;;;;;3.10;2.90;;;-2.60;99.90;;;;;;5003034;28;21044;-79
2024/01/10 08:48:20;;;;;;;4.93;4.60;;;-2.60;99.90;;;;;;4985082;28;20358;-79
2024/01/10 08:50:46;;;;;;;5.33;4.60;;;-2.60;99.90;;;;;;5002649;28;20439;-80
2024/01/10 08:53:11;;;;;;;4.03;3.73;;;-2.50;99.90;;;;;;5000538;28;20512;-78
2024/01/10 08:55:37;;;;;;;4.60;4.30;;;-2.50;99.90;;;;;;5001292;28;20466;-79
2024/01/10 08:58:03;;;;;;;2.13;1.93;;;-2.50;99.90;;;;;;5000552;28;20166;-78
2024/01/10 09:00:28;;;;;;;4.03;3.70;;;-2.50;99.90;;;;;;4990426;28;20125;-80
2024/01/10 09:02:57;;;;;;;7.17;6.47;;;-2.50;99.90;;;;;;4982936;28;20153;-79
2024/01/10 09:05:22;;;;;;;4.63;4.13;;;-2.40;99.90;;;;;;4982501;28;20055;-80
2024/01/10 09:07:50;;;;;;;2.70;2.30;;;-2.40;99.90;;;;;;4981990;28;20160;-79
2024/01/10 09:10:16;;;;;;;4.47;4.07;;;-2.40;99.90;;;;;;4981922;28;20053;-80
2024/01/10 09:12:45;;;;;;;3.77;2.97;;;-2.40;99.90;;;;;;4965516;28;20058;-79
2024/01/10 09:15:13;;;;;;;7.63;5.37;;;-2.30;99.90;;;;;;4981443;28;20058;-79
2024/01/10 09:17:42;;;;;;;4.47;3.87;;;-2.30;99.90;;;;;;4982772;28;20969;-78
2024/01/10 09:20:08;;;;;;;5.30;2.77;;;-2.30;99.90;;;;;;4980308;28;20108;-79
2024/01/10 09:22:34;;;;;;;3.97;3.67;;;-2.20;99.90;;;;;;4981135;28;20070;-78
2024/01/10 09:25:03;;;;;;;4.30;4.10;;;-2.20;99.90;;;;;;4981477;28;20046;-79
2024/01/10 09:27:30;;;;;;;4.13;3.83;;;-2.20;99.90;;;;;;4964737;28;20134;-79
2024/01/10 09:29:56;;;;;;;5.27;4.67;;;-2.20;99.90;;;;;;4981525;28;20493;-78
2024/01/10 09:32:22;;;;;;;4.57;4.27;;;-2.20;99.90;;;;;;4980848;28;20042;-79
2024/01/10 09:34:47;;;;;;;4.10;3.80;;;-2.10;99.90;;;;;;4965993;28;20531;-79
2024/01/10 09:37:13;;;;;;;1.97;1.87;;;-2.10;99.90;;;;;;4979600;28;20038;-78
2024/01/10 09:39:39;;;;;;;3.53;3.27;;;-2.10;99.90;;;;;;4982612;28;20563;-80
2024/01/10 09:42:04;;;;;;;3.40;3.20;;;-2.10;99.90;;;;;;4964248;28;20082;-79
2024/01/10 09:44:30;;;;;;;2.43;2.23;;;-2.10;99.90;;;;;;4982409;28;20057;-80
2024/01/10 09:46:56;;;;;;;4.80;4.30;;;-2.00;99.90;;;;;;4964144;28;20501;-78
2024/01/10 09:49:22;;;;;;;1.40;0.90;;;-2.00;99.90;;;;;;4980952;28;20030;-79
2024/01/10 09:51:53;;;;;;;3.67;3.37;;;-2.00;99.90;;;;;;4964298;28;20536;-79
2024/01/10 09:54:20;;;;;;;3.80;3.60;;;-2.00;99.90;;;;;;4982050;28;20485;-79
2024/01/10 09:56:46;;;;;;;3.33;2.87;;;-1.90;99.90;;;;;;4981105;28;20654;-79
2024/01/10 09:59:12;;;;;;;4.60;4.30;;;-1.90;99.90;;;;;;4982359;28;20121;-79
2024/01/10 10:01:39;;;;;;;5.13;4.63;;;-1.90;99.90;;;;;;4980847;28;20465;-79
2024/01/10 10:04:07;;;;;;;2.70;2.53;;;-1.90;99.90;;;;;;4980080;28;20117;-79
2024/01/10 10:06:33;;;;;;;5.20;3.63;;;-1.80;99.90;;;;;;4979412;28;20050;-79
2024/01/10 10:08:59;;;;;;;4.63;4.23;;;-1.80;99.90;;;;;;4980721;28;20117;-79
2024/01/10 10:11:25;;;;;;;2.67;2.47;;;-1.80;99.90;;;;;;4979901;28;20141;-79
2024/01/10 10:13:51;;;;;;;4.57;4.03;;;-1.80;99.90;;;;;;4980450;28;20054;-80
2024/01/10 10:16:25;;;;;;;2.37;2.27;;;-1.80;99.90;;;;;;4982398;28;20051;-79
2024/01/10 10:18:52;;;;;;;3.90;3.70;;;-1.80;99.90;;;;;;4980055;28;20324;-79
2024/01/10 10:21:18;;;;;;;15.43;4.10;;;-1.80;99.90;;;;;;4979905;28;20108;-79
2024/01/10 10:23:58;;;;;;;2.70;2.53;;;-1.70;99.90;;;;;;4980579;28;20496;-79
2024/01/10 10:26:23;;;;;;;2.97;2.73;;;-1.70;99.90;;;;;;4980707;28;20125;-78
2024/01/10 10:28:51;;;;;;;9.73;5.17;;;-1.70;99.90;;;;;;4980790;28;20461;-79
2024/01/10 10:31:18;;;;;;;4.37;3.90;;;-1.60;99.90;;;;;;4980292;28;20054;-79
2024/01/10 10:33:44;;;;;;;4.97;4.57;;;-1.60;99.90;;;;;;4981635;28;20489;-78
2024/01/10 10:36:10;;;;;;;2.37;2.17;;;-1.60;99.90;;;;;;4979067;28;20410;-78
2024/01/10 10:38:39;;;;;;;4.90;4.50;;;-1.60;99.90;;;;;;4982320;28;20077;-78
2024/01/10 10:41:10;;;;;;;4.63;4.30;;;-1.60;99.90;;;;;;4982808;28;20053;-78
2024/01/10 10:43:37;;;;;;;5.97;4.23;;;-1.60;99.90;;;;;;4998598;28;20053;-77
2024/01/10 10:46:04;;;;;;;3.53;3.23;;;-1.50;99.90;;;;;;4994486;28;20232;-78
2024/01/10 10:48:34;;;;;;;3.47;3.27;;;-1.50;99.90;;;;;;4993475;28;20512;-79
2024/01/10 10:51:17;;;;;;;10.40;6.33;;;-1.50;99.90;;;;;;4980710;28;20147;-79
2024/01/10 10:53:45;;;;;;;4.10;3.73;;;-1.50;99.90;;;;;;4993719;28;20042;-78
2024/01/10 10:56:12;;;;;;;6.53;6.00;;;-1.50;99.90;;;;;;4979537;28;20449;-79
2024/01/10 10:58:45;;;;;;;5.83;3.13;;;-1.40;99.90;;;;;;4981053;28;20050;-79
2024/01/10 11:01:14;;;;;;;3.17;2.97;;;-1.40;99.90;;;;;;4995447;28;20046;-79
2024/01/10 11:03:42;;;;;;;2.40;2.30;;;-1.40;99.90;;;;;;4998269;28;20227;-78
2024/01/10 11:06:08;;;;;;;3.83;3.50;;;-1.40;99.90;;;;;;4989293;28;20042;-79
2024/01/10 11:08:46;;;;;;;4.40;4.10;;;-1.40;99.90;;;;;;4998971;28;20072;-78
2024/01/10 11:11:29;;;;;;;2.20;2.10;;;-1.40;99.90;;;;;;4987314;28;20054;-79
2024/01/10 11:14:21;;;;;;;4.57;4.27;;;-1.40;99.90;;;;;;4991867;28;20057;-79
2024/01/10 11:17:24;;;;;;;7.70;4.07;;;-1.30;99.90;;;;;;5000001;28;20046;-79
2024/01/10 11:19:58;;;;;;;3.90;3.03;;;-1.30;99.90;;;;;;4999932;28;20124;-80
2024/01/10 11:22:52;;;;;;;2.70;2.13;;;-1.30;99.90;;;;;;4976918;28;20053;-79
2024/01/10 11:25:19;;;;;;;3.07;2.83;;;-1.30;99.90;;;;;;4984007;28;20046;-79
2024/01/10 11:27:47;;;;;;;4.17;3.87;;;-1.30;99.90;;;;;;4984598;28;20129;-79
2024/01/10 11:30:12;;;;;;;5.67;4.17;;;-1.30;99.90;;;;;;4986802;28;20422;-79
2024/01/10 11:32:38;;;;;;;5.23;3.27;;;-1.30;99.90;;;;;;4979983;28;20243;-79
2024/01/10 11:35:24;;;;;;;4.63;4.00;;;-1.30;99.90;;;;;;4991378;28;20489;-77
2024/01/10 11:37:51;;;;;;;3.97;3.67;;;-1.20;99.90;;;;;;5000395;28;20107;-78
2024/01/10 11:40:44;;;;;;;2.43;2.33;;;-1.20;99.90;;;;;;5002248;28;20050;-79
2024/01/10 11:43:13;;;;;;;2.33;2.22;;;-1.20;99.90;;;;;;4975476;28;20662;-78
2024/01/10 11:45:55;;;;;;;3.53;3.30;;;-1.20;99.90;;;;;;4989604;28;20396;-80
2024/01/10 11:48:30;;;;;;;3.70;3.45;;;-1.20;99.90;;;;;;4997106;28;20077;-78
2024/01/10 11:50:57;;;;;;;3.53;3.27;;;-1.20;99.90;;;;;;5002206;28;20050;-79
2024/01/10 11:53:45;;;;;;;8.10;3.40;;;-1.20;99.90;;;;;;4996773;28;20488;-80
2024/01/10 11:56:15;;;;;;;5.93;2.23;;;-1.10;99.90;;;;;;4984313;28;20571;-78
2024/01/10 11:58:55;;;;;;;4.03;3.73;;;-1.20;99.90;;;;;;4991806;28;20049;-79
2024/01/10 12:01:22;;;;;;;3.93;3.17;;;-1.10;99.90;;;;;;4969195;28;20425;-78
2024/01/10 12:03:52;;;;;;;2.20;2.03;;;-1.10;99.90;;;;;;4989784;28;20030;-79
2024/01/10 12:06:19;;;;;;;5.43;4.17;;;-1.10;99.90;;;;;;5002095;28;20057;-78
2024/01/10 12:08:45;;;;;;;1.33;1.30;;;-1.10;99.90;;;;;;4986850;28;20120;-79
2024/01/10 12:11:11;;;;;;;2.23;2.10;;;-1.10;99.90;;;;;;4992974;28;20153;-79
2024/01/10 12:13:36;;;;;;;5.73;3.47;;;-1.00;99.90;;;;;;4990232;28;20456;-80
2024/01/10 12:16:02;;;;;;;5.57;3.07;;;-1.00;99.90;;;;;;4989953;28;20408;-78
2024/01/10 12:18:28;;;;;;;2.37;2.23;;;-1.00;99.90;;;;;;5000908;28;20500;-78
2024/01/10 12:20:54;;;;;;;4.70;4.30;;;-1.00;99.90;;;;;;4968454;28;20046;-78
2024/01/10 12:23:20;;;;;;;2.97;2.40;;;-1.00;99.90;;;;;;4990221;28;20056;-80
2024/01/10 12:25:46;;;;;;;1.60;1.50;;;-1.00;99.90;;;;;;4992465;28;20485;-80
2024/01/10 12:28:16;;;;;;;2.87;2.63;;;-1.00;99.90;;;;;;4986853;28;20046;-79
2024/01/10 12:30:42;;;;;;;6.40;3.43;;;-1.00;99.90;;;;;;4989863;28;20124;-77
2024/01/10 12:33:09;;;;;;;4.07;3.77;;;-0.90;99.90;;;;;;4991582;28;20600;-79
2024/01/10 12:35:34;;;;;;;4.80;4.37;;;-0.90;99.90;;;;;;4970534;28;20078;-77
2024/01/10 12:38:00;;;;;;;8.70;5.07;;;-0.90;99.90;;;;;;4989169;28;20077;-79
2024/01/10 12:40:26;;;;;;;3.77;3.50;;;-0.90;99.90;;;;;;4984559;28;21220;-77
2024/01/10 12:43:09;;;;;;;4.50;4.13;;;-0.90;99.90;;;;;;4991771;28;20044;-79
2024/01/10 12:45:35;;;;;;;4.20;3.87;;;-0.90;99.90;;;;;;4995613;28;20053;-79